createdAt,value
2023-08-02T00:00:40.851Z,99807.53
2023-08-02T00:03:08.773Z,99809.44
2023-08-02T00:05:36.613Z,99800.19
2023-08-02T00:08:04.453Z,99800.44
2023-08-02T00:10:37.390Z,99800.19
2023-08-02T00:13:05.244Z,99802.09
2023-08-02T00:15:33.077Z,99782.97
2023-08-02T00:18:00.884Z,99784.06
2023-08-02T00:20:28.729Z,99789.50
2023-08-02T00:22:56.550Z,99787.59
2023-08-02T00:25:24.355Z,99784.06
2023-08-02T00:27:53.492Z,99787.59
2023-08-02T00:30:21.476Z,99784.88
2023-08-02T00:32:49.859Z,99790.34
2023-08-02T00:35:18.190Z,99784.06
2023-08-02T00:37:46.927Z,99768.50
2023-08-02T00:40:14.716Z,99773.13
2023-08-02T00:42:42.505Z,99770.09
2023-08-02T00:45:12.422Z,99781.31
2023-08-02T00:47:40.250Z,99779.41
2023-08-02T00:50:08.863Z,99775.03
2023-08-02T00:52:36.632Z,99764.94
2023-08-02T00:55:05.099Z,99757.84
2023-08-02T00:57:33.044Z,99758.66
2023-08-02T01:00:00.955Z,99771.22
2023-08-02T01:02:30.363Z,99758.88
2023-08-02T01:04:58.663Z,99766.53
2023-08-02T01:07:29.947Z,99760.56
2023-08-02T01:10:02.453Z,99758.66
2023-08-02T01:12:30.413Z,99750.47
2023-08-02T01:14:58.406Z,99737.91
2023-08-02T01:17:28.461Z,99741.47
2023-08-02T01:20:05.366Z,99733.28
2023-08-02T01:22:33.345Z,99727.81
2023-08-02T01:25:01.712Z,99724.25
2023-08-02T01:27:33.972Z,99730.56
2023-08-02T01:30:02.299Z,99718.75
2023-08-02T01:32:30.281Z,99723.19
2023-08-02T01:34:58.320Z,99723.19
2023-08-02T01:37:27.688Z,99724.00
2023-08-02T01:39:55.630Z,99721.28
2023-08-02T01:42:23.625Z,99724.25
2023-08-02T01:44:51.580Z,99724.84
2023-08-02T01:47:19.599Z,99719.63
2023-08-02T01:49:47.512Z,99708.72
2023-08-02T01:52:15.471Z,99707.91
2023-08-02T01:54:45.066Z,99704.91
2023-08-02T01:57:13.043Z,99696.97
2023-08-02T01:59:41.051Z,99683.34
2023-08-02T02:02:09.422Z,99673.25
2023-08-02T02:04:37.402Z,99673.25
2023-08-02T02:07:05.875Z,99670.50
2023-08-02T02:09:33.879Z,99669.69
2023-08-02T02:12:03.261Z,99652.22
2023-08-02T02:14:31.216Z,99657.09
2023-08-02T02:16:59.142Z,99666.97
2023-08-02T02:19:27.134Z,99665.06
2023-08-02T02:21:55.369Z,99662.31
2023-08-02T02:24:23.390Z,99658.50
2023-08-02T02:26:51.342Z,99654.13
2023-08-02T02:29:20.709Z,99646.78
2023-08-02T02:31:48.673Z,99634.22
2023-08-02T02:34:16.682Z,99629.56
2023-08-02T02:36:46.781Z,99614.25
2023-08-02T02:39:14.668Z,99606.06
2023-08-02T02:41:42.629Z,99614.03
2023-08-02T02:44:11.219Z,99596.50
2023-08-02T02:46:40.902Z,99592.41
2023-08-02T02:49:09.082Z,99596.81
2023-08-02T02:51:37.285Z,99594.94
2023-08-02T02:54:05.320Z,99585.91
2023-08-02T02:56:33.249Z,99568.72
2023-08-02T02:59:01.199Z,99558.63
2023-08-02T03:01:29.311Z,99552.34
2023-08-02T03:03:58.974Z,99550.44
2023-08-02T03:06:26.979Z,99546.03
2023-08-02T03:08:54.952Z,99555.06
2023-08-02T03:11:22.951Z,99536.78
2023-08-02T03:13:51.180Z,99551.47
2023-08-02T03:16:19.218Z,99560.53
2023-08-02T03:18:47.427Z,99561.34
2023-08-02T03:21:16.750Z,99542.25
2023-08-02T03:23:44.767Z,99539.53
2023-08-02T03:26:12.942Z,99557.53
2023-08-02T03:28:40.880Z,99554.00
2023-08-02T03:31:08.890Z,99550.44
2023-08-02T03:33:36.808Z,99561.34
2023-08-02T03:36:05.010Z,99540.34
2023-08-02T03:38:34.373Z,99526.69
2023-08-02T03:41:02.323Z,99527.78
2023-08-02T03:43:30.239Z,99521.25
2023-08-02T03:45:58.214Z,99514.97
2023-08-02T03:48:29.708Z,99511.16
2023-08-02T03:50:57.683Z,99502.13
2023-08-02T03:53:25.696Z,99489.31
2023-08-02T03:55:55.075Z,99475.66
2023-08-02T03:58:23.047Z,99466.66
2023-08-02T04:00:52.103Z,99471.28
2023-08-02T04:03:20.043Z,99484.94
2023-08-02T04:05:48.278Z,99485.75
2023-08-02T04:08:16.217Z,99488.50
2023-08-02T04:10:44.138Z,99484.69
2023-08-02T04:13:13.444Z,99486.59
2023-08-02T04:15:41.644Z,99489.31
2023-08-02T04:18:09.595Z,99494.78
2023-08-02T04:20:39.528Z,99492.03
2023-08-02T04:23:07.730Z,99489.31
2023-08-02T04:25:36.030Z,99485.50
2023-08-02T04:28:03.994Z,99474.84
2023-08-02T04:30:33.364Z,99469.41
2023-08-02T04:33:01.348Z,99455.75
2023-08-02T04:35:30.591Z,99436.66
2023-08-02T04:37:58.993Z,99425.72
2023-08-02T04:40:26.926Z,99414.00
2023-08-02T04:42:55.302Z,99412.31
2023-08-02T04:45:23.400Z,99402.00
2023-08-02T04:47:52.814Z,99398.44
2023-08-02T04:50:20.740Z,99376.59
2023-08-02T04:52:48.656Z,99369.25
2023-08-02T04:55:17.167Z,99371.16
2023-08-02T04:57:45.051Z,99365.69
2023-08-02T05:00:13.659Z,99358.59
2023-08-02T05:02:41.628Z,99353.13
2023-08-02T05:05:11.725Z,99343.88
2023-08-02T05:07:41.298Z,99349.31
2023-08-02T05:10:10.317Z,99359.16
2023-08-02T05:12:39.712Z,99344.94
2023-08-02T05:15:09.855Z,99347.69
2023-08-02T05:17:38.569Z,99341.13
2023-08-02T05:20:07.971Z,99332.94
2023-08-02T05:22:37.275Z,99305.88
2023-08-02T05:25:06.039Z,99310.28
2023-08-02T05:27:34.085Z,99302.94
2023-08-02T05:30:02.222Z,99301.03
2023-08-02T05:32:30.254Z,99292.00
2023-08-02T05:34:58.572Z,99271.00
2023-08-02T05:37:26.538Z,99256.53
2023-08-02T05:39:56.259Z,99257.38
2023-08-02T05:42:24.310Z,99255.72
2023-08-02T05:44:52.247Z,99250.25
2023-08-02T05:47:20.631Z,99240.16
2023-08-02T05:49:49.511Z,99253.00
2023-08-02T05:52:17.494Z,99253.00
2023-08-02T05:54:46.100Z,99250.00
2023-08-02T05:57:15.425Z,99241.81
2023-08-02T05:59:43.317Z,99241.00
2023-08-02T06:02:11.303Z,99241.00
2023-08-02T06:04:40.877Z,99235.53
2023-08-02T06:07:08.897Z,99234.44
2023-08-02T06:09:36.889Z,99223.53
2023-08-02T06:12:05.226Z,99201.97
2023-08-02T06:14:34.585Z,99203.59
2023-08-02T06:17:02.565Z,99202.78
2023-08-02T06:19:31.874Z,99205.53
2023-08-02T06:21:59.824Z,99202.78
2023-08-02T06:24:27.740Z,99201.97
2023-08-02T06:26:55.726Z,99196.50
2023-08-02T06:29:23.663Z,99200.88
2023-08-02T06:31:52.985Z,99195.44
2023-08-02T06:34:21.036Z,99191.06
2023-08-02T06:36:49.054Z,99195.44
2023-08-02T06:39:17.021Z,99186.41
2023-08-02T06:41:44.994Z,99171.69
2023-08-02T06:44:14.126Z,99155.31
2023-08-02T06:46:42.653Z,99145.75
2023-08-02T06:49:12.135Z,99143.59
2023-08-02T06:51:40.838Z,99138.13
2023-08-02T06:54:09.517Z,99129.94
2023-08-02T06:56:37.459Z,99127.22
2023-08-02T06:59:05.399Z,99119.84
2023-08-02T07:01:33.676Z,99111.66
2023-08-02T07:04:01.776Z,99099.91
2023-08-02T07:06:31.292Z,99088.19
2023-08-02T07:08:59.445Z,99080.00
2023-08-02T07:11:36.473Z,99078.09
2023-08-02T07:14:05.967Z,99064.44
2023-08-02T07:16:33.925Z,99058.44
2023-08-02T07:19:04.284Z,99054.34
2023-08-02T07:21:34.015Z,99045.34
2023-08-02T07:24:02.268Z,99039.06
2023-08-02T07:26:30.267Z,99031.97
2023-08-02T07:28:58.249Z,99031.72
2023-08-02T07:31:26.422Z,99020.78
2023-08-02T07:33:54.435Z,99018.88
2023-08-02T07:36:22.499Z,99013.44
2023-08-02T07:38:52.092Z,98998.16
2023-08-02T07:41:22.360Z,98988.88
2023-08-02T07:43:50.716Z,98983.41
2023-08-02T07:46:19.361Z,98969.75
2023-08-02T07:48:47.364Z,98956.63
2023-08-02T07:51:15.608Z,98951.75
2023-08-02T07:53:43.587Z,98952.56
2023-08-02T07:56:12.936Z,98949.84
2023-08-02T07:58:40.909Z,98942.47
2023-08-02T08:01:09.283Z,98932.38
2023-08-02T08:03:37.407Z,98938.63
2023-08-02T08:06:11.361Z,98924.97
2023-08-02T08:08:39.318Z,98935.91
2023-08-02T08:11:07.231Z,98916.81
2023-08-02T08:13:36.584Z,98923.38
2023-08-02T08:16:04.591Z,98923.06
2023-08-02T08:18:33.203Z,98914.88
2023-08-02T08:21:01.228Z,98918.44
2023-08-02T08:23:29.138Z,98927.44
2023-08-02T08:25:57.085Z,98938.34
2023-08-02T08:28:25.159Z,98925.53
2023-08-02T08:31:01.753Z,98924.72
2023-08-02T08:33:30.115Z,98923.06
2023-08-02T08:35:58.056Z,98928.25
2023-08-02T08:38:26.020Z,98905.63
2023-08-02T08:40:54.113Z,98911.88
2023-08-02T08:43:22.104Z,98923.63
2023-08-02T08:45:50.558Z,98909.97
2023-08-02T08:48:19.985Z,98905.34
2023-08-02T08:50:48.732Z,98903.69
2023-08-02T08:53:18.369Z,98908.06
2023-08-02T08:55:47.292Z,98902.59
2023-08-02T08:58:15.292Z,98892.50
2023-08-02T09:00:43.336Z,98882.69
2023-08-02T09:03:11.395Z,98873.69
2023-08-02T09:05:40.755Z,98885.41
2023-08-02T09:08:08.703Z,98888.97
2023-08-02T09:10:36.735Z,98881.59
2023-08-02T09:13:04.657Z,98877.78
2023-08-02T09:15:32.702Z,98864.97
2023-08-02T09:18:01.241Z,98846.13
2023-08-02T09:20:29.375Z,98857.03
2023-08-02T09:22:58.882Z,98846.13
2023-08-02T09:25:28.577Z,98837.13
2023-08-02T09:27:59.747Z,98826.47
2023-08-02T09:30:28.940Z,98829.75
2023-08-02T09:33:03.689Z,98821.84
2023-08-02T09:35:34.611Z,98827.84
2023-08-02T09:38:09.948Z,98816.94
2023-08-02T09:40:58.645Z,98817.75
2023-08-02T09:43:27.235Z,98815.03
2023-08-02T09:45:56.150Z,98809.56
2023-08-02T09:48:36.127Z,98807.63
2023-08-02T09:51:05.053Z,98809.25
2023-08-02T09:53:35.207Z,98804.38
2023-08-02T09:56:03.222Z,98806.53
2023-08-02T09:58:31.320Z,98799.97
2023-08-02T10:00:59.410Z,98810.88
2023-08-02T10:03:28.833Z,98808.16
2023-08-02T10:05:58.106Z,98799.97
2023-08-02T10:08:26.251Z,98809.78
2023-08-02T10:10:55.600Z,98804.34
2023-08-02T10:13:25.663Z,98803.50
2023-08-02T10:15:53.647Z,98811.69
2023-08-02T10:18:21.607Z,98798.06
2023-08-02T10:20:49.624Z,98793.41
2023-08-02T10:23:17.576Z,98798.88
2023-08-02T10:25:45.555Z,98780.88
2023-08-02T10:28:14.932Z,98768.03
2023-08-02T10:30:42.899Z,98768.03
2023-08-02T10:33:15.489Z,98768.03
2023-08-02T10:35:56.923Z,98759.84
2023-08-02T10:38:27.992Z,98759.84
2023-08-02T10:41:05.770Z,98756.03
2023-08-02T10:43:35.149Z,98756.31
2023-08-02T10:46:18.571Z,98761.22
2023-08-02T10:48:46.678Z,98750.28
2023-08-02T10:51:31.262Z,98742.13
2023-08-02T10:54:12.060Z,98743.72
2023-08-02T10:57:07.155Z,98730.06
2023-08-02T10:59:43.094Z,98731.19
2023-08-02T11:02:14.031Z,98729.25
2023-08-02T11:04:46.348Z,98712.59
2023-08-02T11:07:15.148Z,98715.31
2023-08-02T11:09:43.156Z,98700.88
2023-08-02T11:12:12.014Z,98707.97
2023-08-02T11:14:40.275Z,98693.50
2023-08-02T11:17:14.150Z,98705.22
2023-08-02T11:20:05.893Z,98698.69
2023-08-02T11:22:36.521Z,98696.75
2023-08-02T11:25:04.744Z,98675.50
2023-08-02T11:30:09.033Z,98669.47
2023-08-02T11:32:44.421Z,98652.00
2023-08-02T11:35:16.914Z,98646.81
2023-08-02T11:37:44.832Z,98649.56
2023-08-02T11:40:25.524Z,98646.81
2023-08-02T11:42:56.096Z,98642.19
2023-08-02T11:45:30.767Z,98629.91
2023-08-02T11:50:32.940Z,98611.84
2023-08-02T11:53:07.931Z,98600.94
2023-08-02T11:55:37.204Z,98599.34
2023-08-02T11:58:06.344Z,98590.03
2023-08-02T12:00:35.066Z,98577.19
2023-08-02T12:03:14.774Z,98575.28
2023-08-02T12:05:44.111Z,98565.47
2023-08-02T12:08:13.012Z,98569.00
2023-08-02T12:10:41.159Z,98565.47
2023-08-02T12:13:10.892Z,98567.09
2023-08-02T12:15:38.934Z,98567.09
2023-08-02T12:18:07.507Z,98550.72
2023-08-02T12:20:36.992Z,98545.25
2023-08-02T12:23:05.623Z,98534.34
2023-08-02T12:25:47.982Z,98531.63
2023-08-02T12:28:16.185Z,98507.88
2023-08-02T12:31:02.083Z,98497.75
2023-08-02T12:33:30.188Z,98487.94
2023-08-02T12:35:59.960Z,98482.50
2023-08-02T12:38:30.568Z,98468.84
2023-08-02T12:40:59.262Z,98474.31
2023-08-02T12:43:27.647Z,98491.50
2023-08-02T12:45:55.716Z,98477.56
2023-08-02T12:48:23.714Z,98579.63
2023-08-02T12:50:51.685Z,98610.47
2023-08-02T12:53:21.058Z,98609.66
2023-08-02T12:55:49.304Z,98595.72
2023-08-02T12:58:17.339Z,98600.09
2023-08-02T13:00:46.047Z,98592.19
2023-08-02T13:03:14.116Z,98596.53
2023-08-02T13:05:42.163Z,98603.59
2023-08-02T13:08:11.235Z,98594.63
2023-08-02T13:10:40.649Z,98616.16
2023-08-02T13:13:08.576Z,98614.53
2023-08-02T13:15:36.590Z,98634.44
2023-08-02T13:18:04.821Z,98630.09
2023-08-02T13:20:32.788Z,98619.19
2023-08-02T13:23:00.801Z,98622.72
2023-08-02T13:25:31.262Z,98628.16
2023-08-02T13:28:00.614Z,98621.09
2023-08-02T13:30:28.545Z,98626.84
2023-08-02T13:32:56.578Z,98623.31
2023-08-02T13:35:24.862Z,98630.09
2023-08-02T13:37:53.006Z,98633.94
2023-08-02T13:40:21.190Z,98641.03
2023-08-02T13:42:49.530Z,98635.56
2023-08-02T13:45:19.147Z,98638.28
2023-08-02T13:47:47.105Z,98632.84
2023-08-02T13:50:15.139Z,98621.09
2023-08-02T13:52:43.062Z,98602.81
2023-08-02T13:55:11.150Z,98602.50
2023-08-02T13:57:39.139Z,98588.84
2023-08-02T14:00:09.826Z,98588.84
2023-08-02T14:02:39.332Z,98593.50
2023-08-02T14:05:07.529Z,98598.16
2023-08-02T14:07:35.520Z,98597.34
2023-08-02T14:10:03.589Z,98599.28
2023-08-02T14:12:31.597Z,98607.16
2023-08-02T14:14:59.992Z,98614.53
2023-08-02T14:17:28.184Z,98619.97
2023-08-02T14:19:57.587Z,98623.84
2023-08-02T14:22:25.524Z,98628.16
2023-08-02T14:24:53.471Z,98619.97
2023-08-02T14:27:21.851Z,98618.88
2023-08-02T14:29:49.887Z,98620.50
2023-08-02T14:32:18.021Z,98606.34
2023-08-02T14:34:46.333Z,98598.97
2023-08-02T14:37:15.885Z,98592.69
2023-08-02T14:39:45.117Z,98590.78
2023-08-02T14:43:00.545Z,98616.16
2023-08-02T14:45:38.911Z,98620.78
2023-08-02T14:48:07.330Z,98622.72
2023-08-02T14:50:35.303Z,98605.53
2023-08-02T14:53:04.670Z,98600.09
2023-08-02T14:55:32.644Z,98598.97
2023-08-02T14:58:00.606Z,98591.59
2023-08-02T15:00:28.649Z,98590.78
2023-08-02T15:02:56.663Z,98585.31
2023-08-02T15:05:24.724Z,98594.31
2023-08-02T15:07:52.724Z,98577.44
2023-08-02T15:10:22.087Z,98585.31
2023-08-02T15:12:50.043Z,98587.22
2023-08-02T15:15:18.060Z,98583.41
2023-08-02T15:17:46.190Z,98579.84
2023-08-02T15:20:14.622Z,98571.38
2023-08-02T15:22:42.674Z,98574.41
2023-08-02T15:25:11.036Z,98572.47
2023-08-02T15:27:40.395Z,98570.56
2023-08-02T15:30:11.879Z,98572.19
2023-08-02T15:32:40.162Z,98575.22
2023-08-02T15:35:08.765Z,98568.66
2023-08-02T15:37:36.710Z,98577.94
2023-08-02T15:40:05.448Z,98595.94
2023-08-02T15:42:33.434Z,98587.75
2023-08-02T15:45:03.686Z,98616.97
2023-08-02T15:47:32.039Z,98616.16
2023-08-02T15:49:59.986Z,98621.59
2023-08-02T15:52:28.055Z,98622.44
2023-08-02T15:54:56.029Z,98630.34
2023-08-02T15:57:24.102Z,98625.16
2023-08-02T15:59:52.240Z,98619.69
2023-08-02T16:02:21.621Z,98625.97
2023-08-02T16:04:49.597Z,98616.16
2023-08-02T16:07:17.595Z,98618.59
2023-08-02T16:09:45.493Z,98619.47
2023-08-02T16:12:13.473Z,98609.59
2023-08-02T16:14:41.488Z,98619.41
2023-08-02T16:17:09.509Z,98616.97
2023-08-02T16:19:39.011Z,98616.97
2023-08-02T16:22:07.548Z,98605.22
2023-08-02T16:24:35.486Z,98612.31
2023-08-02T16:27:04.437Z,98615.88
2023-08-02T16:29:32.413Z,98595.13
2023-08-02T16:32:00.424Z,98598.69
2023-08-02T16:34:28.606Z,98599.78
2023-08-02T16:36:58.120Z,98597.88
2023-08-02T16:39:26.216Z,98614.25
2023-08-02T16:41:54.197Z,98624.34
2023-08-02T16:44:22.460Z,98621.59
2023-08-02T16:46:50.476Z,98623.25
2023-08-02T16:49:18.498Z,98616.97
2023-08-02T16:51:46.487Z,98627.88
2023-08-02T16:54:15.869Z,98622.72
2023-08-02T16:56:43.815Z,98628.97
2023-08-02T16:59:11.799Z,98631.72
2023-08-02T17:01:39.756Z,98636.88
2023-08-02T17:04:07.740Z,98644.25
2023-08-02T17:06:36.840Z,98639.63
2023-08-02T17:09:05.057Z,98646.16
2023-08-02T17:11:34.400Z,98652.44
2023-08-02T17:14:04.649Z,98654.34
2023-08-02T17:16:32.729Z,98655.47
2023-08-02T17:19:00.732Z,98676.78
2023-08-02T17:21:28.904Z,98680.84
2023-08-02T17:23:56.830Z,98681.16
2023-08-02T17:26:24.779Z,98712.78
2023-08-02T17:28:54.132Z,98754.25
2023-08-02T17:31:22.064Z,98792.22
2023-08-02T17:33:50.016Z,98765.44
2023-08-02T17:36:18.064Z,98773.63
2023-08-02T17:38:46.077Z,98759.16
2023-08-02T17:41:14.256Z,98758.88
2023-08-02T17:43:42.565Z,98748.78
2023-08-02T17:46:11.957Z,98760.81
2023-08-02T17:48:41.771Z,98757.25
2023-08-02T17:51:10.892Z,98763.53
2023-08-02T17:53:38.935Z,98757.25
2023-08-02T17:56:06.937Z,98764.63
2023-08-02T17:58:35.451Z,98770.09
2023-08-02T18:01:15.259Z,98770.09
2023-08-02T18:03:45.680Z,98769.31
2023-08-02T18:06:13.737Z,98766.56
2023-08-02T18:08:42.871Z,98754.84
2023-08-02T18:11:10.823Z,98758.38
2023-08-02T18:13:38.778Z,98741.47
2023-08-02T18:16:07.631Z,98752.09
2023-08-02T18:18:41.627Z,98745.53
2023-08-02T18:21:12.127Z,98743.91
2023-08-02T18:23:40.182Z,98736.56
2023-08-02T18:26:10.254Z,98750.19
2023-08-02T18:28:38.320Z,98742.78
2023-08-02T18:31:07.251Z,98733.00
2023-08-02T18:33:37.230Z,98733.81
2023-08-02T18:36:08.909Z,98750.97
2023-08-02T18:38:36.899Z,98745.53
2023-08-02T18:41:05.181Z,98755.94
2023-08-02T18:43:33.226Z,98753.72
2023-08-02T18:46:01.326Z,98757.25
2023-08-02T18:48:29.536Z,98755.66
2023-08-02T18:50:58.939Z,98759.16
2023-08-02T18:53:28.154Z,98759.16
2023-08-02T18:55:56.375Z,98755.66
2023-08-02T18:58:24.312Z,98759.47
2023-08-02T19:00:52.952Z,98764.13
2023-08-02T19:03:20.910Z,98760.56
2023-08-02T19:05:48.881Z,98763.31
2023-08-02T19:08:18.184Z,98757.84
2023-08-02T19:10:46.165Z,98757.09
2023-08-02T19:13:15.924Z,98761.66
2023-08-02T19:15:44.105Z,98761.66
2023-08-02T19:18:12.180Z,98767.94
2023-08-02T19:20:40.155Z,98637.44
2023-08-02T19:23:09.454Z,98773.41
2023-08-02T19:25:39.088Z,98778.59
2023-08-02T19:28:07.162Z,98781.31
2023-08-02T19:30:35.280Z,98782.13
2023-08-02T19:33:03.296Z,98781.31
2023-08-02T19:35:31.257Z,98780.22
2023-08-02T19:38:00.515Z,98790.31
2023-08-02T19:40:30.298Z,98794.66
2023-08-02T19:42:59.655Z,98812.66
2023-08-02T19:45:27.594Z,98802.06
2023-08-02T19:47:55.585Z,98794.66
2023-08-02T19:50:23.630Z,98802.84
2023-08-02T19:52:51.588Z,98797.38
2023-08-02T19:55:19.775Z,98797.38
2023-08-02T19:57:47.882Z,98788.09
2023-08-02T20:00:18.141Z,98801.50
2023-08-02T20:02:46.275Z,98798.50
2023-08-02T20:05:17.932Z,98799.00
2023-08-02T20:07:46.291Z,98796.28
2023-08-02T20:10:49.054Z,98792.75
2023-08-02T20:13:18.626Z,98791.19
2023-08-02T20:15:48.367Z,98810.25
2023-08-02T20:18:17.294Z,98802.06
2023-08-02T20:20:45.673Z,98805.88
2023-08-02T20:23:14.220Z,98806.69
2023-08-02T20:25:42.391Z,98800.41
2023-08-02T20:28:12.214Z,98799.59
2023-08-02T20:30:40.468Z,98807.56
2023-08-02T20:33:10.768Z,98811.91
2023-08-02T20:35:40.439Z,98803.72
2023-08-02T20:38:13.297Z,98799.38
2023-08-02T20:40:41.275Z,98797.44
2023-08-02T20:43:10.683Z,98794.69
2023-08-02T20:45:38.744Z,98797.44
2023-08-02T20:48:07.026Z,98799.38
2023-08-02T20:50:36.669Z,98801.28
2023-08-02T20:53:04.659Z,98797.75
2023-08-02T20:55:37.001Z,98801.28
2023-08-02T20:58:06.561Z,98802.38
2023-08-02T21:00:46.440Z,98802.38
2023-08-02T21:03:19.522Z,98805.94
2023-08-02T21:05:48.857Z,98812.47
2023-08-02T21:08:16.831Z,98810.56
2023-08-02T21:10:44.903Z,98821.47
2023-08-02T21:13:12.900Z,98817.13
2023-08-02T21:15:43.679Z,98815.22
2023-08-02T21:18:11.687Z,98816.31
2023-08-02T21:20:43.165Z,98818.22
2023-08-02T21:23:13.793Z,98817.13
2023-08-02T21:25:42.608Z,98807.84
2023-08-02T21:28:17.156Z,98796.38
2023-08-02T21:30:47.530Z,98808.13
2023-08-02T21:33:15.651Z,98805.66
2023-08-02T21:35:46.517Z,98805.66
2023-08-02T21:38:20.280Z,98805.66
2023-08-02T21:40:48.772Z,98799.41
2023-08-02T21:43:18.283Z,98804.88
2023-08-02T21:45:46.748Z,98804.88
2023-08-02T21:48:16.033Z,98805.66
2023-08-02T21:50:45.331Z,98808.38
2023-08-02T21:53:20.224Z,98791.00
2023-08-02T21:55:48.388Z,98795.88
2023-08-02T21:58:18.038Z,98796.97
2023-08-02T22:00:46.251Z,98794.22
2023-08-02T22:03:14.840Z,98795.88
2023-08-02T22:05:44.693Z,98796.97
2023-08-02T22:08:13.686Z,98791.50
2023-08-02T22:10:43.568Z,98801.59
2023-08-02T22:13:15.536Z,98804.06
2023-08-02T22:15:44.097Z,98793.41
2023-08-02T22:18:12.854Z,98809.50
2023-08-02T22:20:40.997Z,98795.06
2023-08-02T22:23:09.205Z,98786.06
2023-08-02T22:25:37.429Z,98793.41
2023-08-02T22:28:06.968Z,98799.69
2023-08-02T22:30:34.961Z,98806.25
2023-08-02T22:33:03.040Z,98811.69
2023-08-02T22:35:31.133Z,98811.69
2023-08-02T22:37:59.169Z,98825.34
2023-08-02T22:40:27.413Z,98816.88
2023-08-02T22:42:55.396Z,98816.06
2023-08-02T22:45:24.795Z,98821.53
2023-08-02T22:48:15.025Z,98810.88
2023-08-02T22:53:12.628Z,98810.63
2023-08-02T22:55:40.604Z,98817.16
2023-08-02T22:58:08.992Z,98808.97
2023-08-02T23:00:38.358Z,98808.97
2023-08-02T23:03:07.538Z,98818.25
2023-08-02T23:05:45.502Z,98799.97
2023-08-02T23:08:13.873Z,98819.06
2023-08-02T23:10:42.184Z,98812.78
2023-08-02T23:13:13.188Z,98793.97
2023-08-02T23:15:43.010Z,98797.81
2023-08-02T23:18:11.931Z,98795.91
2023-08-02T23:20:44.221Z,98806.53
2023-08-02T23:23:22.985Z,98801.06
2023-08-02T23:25:51.170Z,98807.09
2023-08-02T23:28:19.147Z,98801.06
2023-08-02T23:30:48.462Z,98808.75
2023-08-02T23:33:16.412Z,98805.19
2023-08-02T23:35:44.543Z,98804.88
2023-08-02T23:38:12.999Z,98799.44
2023-08-02T23:40:41.248Z,98797.81
2023-08-02T23:43:09.258Z,98786.09
2023-08-02T23:45:37.268Z,98792.38
2023-08-02T23:48:06.978Z,98790.75
2023-08-02T23:50:35.250Z,98801.66
2023-08-02T23:53:03.342Z,98805.19
2023-08-02T23:55:31.287Z,98804.09
2023-08-02T23:57:59.202Z,98804.09
